createdAt,value
2018-08-22T00:00:23.438Z,51.85
2018-08-22T00:02:52.578Z,51.82
2018-08-22T00:05:21.710Z,51.72
2018-08-22T00:07:50.986Z,51.81
2018-08-22T00:10:20.106Z,52.74
2018-08-22T00:12:49.247Z,52.45
2018-08-22T00:15:18.485Z,53.02
2018-08-22T00:17:47.506Z,53.96
2018-08-22T00:20:16.735Z,52.92
2018-08-22T00:22:45.966Z,53.03
2018-08-22T00:25:15.163Z,53.52
2018-08-22T00:27:44.256Z,53.38
2018-08-22T00:30:13.377Z,52.73
2018-08-22T00:32:42.522Z,53.11
2018-08-22T00:35:11.653Z,53.25
2018-08-22T00:37:40.814Z,53.44
2018-08-22T00:40:09.937Z,54.06
2018-08-22T00:42:39.083Z,53.30
2018-08-22T00:45:08.341Z,53.51
2018-08-22T00:47:37.471Z,53.13
2018-08-22T00:50:06.615Z,53.17
2018-08-22T00:52:35.750Z,52.61
2018-08-22T00:55:04.888Z,53.73
2018-08-22T00:57:34.018Z,53.37
2018-08-22T01:00:03.154Z,53.22
2018-08-22T01:02:32.282Z,53.47
2018-08-22T01:05:01.428Z,53.86
2018-08-22T01:07:30.553Z,54.57
2018-08-22T01:10:00.303Z,54.31
2018-08-22T01:12:31.498Z,54.37
2018-08-22T01:15:00.810Z,54.85
2018-08-22T01:17:30.814Z,54.97
2018-08-22T01:20:00.991Z,54.16
2018-08-22T01:22:30.286Z,54.83
2018-08-22T01:24:59.426Z,54.37
2018-08-22T01:27:28.566Z,54.49
2018-08-22T01:29:57.713Z,54.64
2018-08-22T01:32:26.841Z,54.72
2018-08-22T01:34:55.985Z,54.55
2018-08-22T01:37:25.110Z,54.94
2018-08-22T01:39:54.258Z,55.05
2018-08-22T01:42:23.389Z,55.14
2018-08-22T01:44:52.529Z,55.53
2018-08-22T01:47:21.666Z,55.01
2018-08-22T01:49:50.802Z,55.63
2018-08-22T01:52:19.937Z,55.72
2018-08-22T01:54:49.125Z,55.44
2018-08-22T01:57:18.249Z,55.38
2018-08-22T01:59:47.397Z,55.53
2018-08-22T02:02:16.521Z,54.92
2018-08-22T02:04:45.658Z,55.40
2018-08-22T02:07:14.805Z,55.15
2018-08-22T02:09:43.942Z,55.94
2018-08-22T02:12:13.074Z,54.86
2018-08-22T02:14:42.216Z,54.65
2018-08-22T02:17:11.350Z,55.12
2018-08-22T02:19:40.478Z,55.57
2018-08-22T02:22:09.602Z,54.18
2018-08-22T02:24:38.737Z,54.81
2018-08-22T02:27:07.872Z,55.37
2018-08-22T02:29:37.005Z,56.26
2018-08-22T02:32:06.807Z,56.12
2018-08-22T02:34:35.951Z,56.29
2018-08-22T02:37:05.190Z,56.04
2018-08-22T02:39:34.329Z,56.41
2018-08-22T02:42:04.907Z,56.13
2018-08-22T02:44:34.078Z,56.52
2018-08-22T02:47:03.998Z,56.19
2018-08-22T02:49:34.039Z,56.37
2018-08-22T02:52:05.025Z,56.21
2018-08-22T02:54:34.264Z,57.03
2018-08-22T02:57:04.369Z,57.30
2018-08-22T02:59:33.513Z,57.01
2018-08-22T03:02:02.647Z,56.47
2018-08-22T03:04:31.781Z,57.06
2018-08-22T03:07:00.902Z,56.25
2018-08-22T03:09:30.051Z,56.69
2018-08-22T03:11:59.173Z,56.82
2018-08-22T03:14:28.321Z,57.06
2018-08-22T03:16:57.463Z,56.85
2018-08-22T03:19:26.612Z,56.37
2018-08-22T03:21:55.768Z,56.48
2018-08-22T03:24:24.905Z,56.77
2018-08-22T03:26:54.118Z,56.50
2018-08-22T03:29:23.257Z,57.24
2018-08-22T03:31:52.408Z,57.41
2018-08-22T03:34:21.542Z,56.70
2018-08-22T03:36:50.702Z,57.75
2018-08-22T03:39:22.843Z,57.20
2018-08-22T03:41:52.051Z,57.74
2018-08-22T03:44:21.194Z,57.32
2018-08-22T03:46:50.336Z,57.38
2018-08-22T03:49:19.475Z,57.06
2018-08-22T03:51:48.609Z,58.12
2018-08-22T03:54:17.742Z,56.99
2018-08-22T03:56:46.894Z,58.18
2018-08-22T03:59:16.031Z,57.88
2018-08-22T04:01:45.169Z,57.50
2018-08-22T04:04:14.300Z,57.78
2018-08-22T04:06:43.434Z,57.62
2018-08-22T04:09:12.565Z,57.51
2018-08-22T04:11:41.746Z,57.68
2018-08-22T04:14:10.874Z,57.30
2018-08-22T04:16:40.027Z,57.58
2018-08-22T04:19:09.155Z,58.25
2018-08-22T04:21:38.990Z,58.20
2018-08-22T04:24:08.126Z,58.47
2018-08-22T04:26:37.881Z,57.72
2018-08-22T04:29:07.974Z,58.18
2018-08-22T04:31:38.000Z,57.60
2018-08-22T04:34:08.219Z,57.75
2018-08-22T04:36:38.351Z,57.96
2018-08-22T04:39:09.643Z,58.05
2018-08-22T04:41:38.802Z,57.82
2018-08-22T04:44:08.870Z,58.32
2018-08-22T04:46:38.979Z,57.92
2018-08-22T04:49:09.030Z,57.99
2018-08-22T04:51:39.183Z,59.02
2018-08-22T04:54:09.269Z,58.31
2018-08-22T04:56:40.473Z,58.31
2018-08-22T04:59:10.983Z,58.80
2018-08-22T05:01:40.127Z,58.61
2018-08-22T05:04:09.659Z,58.58
2018-08-22T05:06:39.769Z,58.91
2018-08-22T05:09:10.350Z,58.10
2018-08-22T05:11:39.891Z,58.86
2018-08-22T05:14:10.047Z,59.08
2018-08-22T05:16:41.171Z,57.97
2018-08-22T05:19:11.386Z,58.00
2018-08-22T05:21:40.532Z,59.15
2018-08-22T05:24:10.405Z,58.63
2018-08-22T05:26:39.567Z,59.64
2018-08-22T05:29:08.739Z,59.08
2018-08-22T05:31:37.873Z,59.59
2018-08-22T05:34:07.127Z,58.51
2018-08-22T05:36:36.271Z,58.92
2018-08-22T05:39:10.454Z,59.24
2018-08-22T05:47:49.455Z,59.50
2018-08-22T05:50:18.591Z,59.24
2018-08-22T05:52:47.738Z,58.88
2018-08-22T05:55:16.885Z,59.00
2018-08-22T05:57:46.046Z,59.36
2018-08-22T06:00:15.177Z,59.24
2018-08-22T06:02:44.317Z,58.30
2018-08-22T06:05:13.451Z,58.53
2018-08-22T06:07:42.880Z,58.76
2018-08-22T06:10:12.350Z,58.67
2018-08-22T06:12:42.488Z,57.93
2018-08-22T06:15:12.608Z,58.86
2018-08-22T06:17:42.632Z,57.84
2018-08-22T06:20:12.906Z,58.33
2018-08-22T06:22:42.055Z,57.40
2018-08-22T06:25:11.183Z,57.95
2018-08-22T06:27:40.462Z,58.30
2018-08-22T06:30:10.905Z,58.01
2018-08-22T06:32:40.095Z,57.06
2018-08-22T06:35:09.240Z,57.26
2018-08-22T06:37:38.373Z,56.42
2018-08-22T06:40:07.509Z,56.61
2018-08-22T06:42:36.649Z,56.18
2018-08-22T06:45:07.371Z,56.72
2018-08-22T06:47:36.554Z,56.17
2018-08-22T06:50:05.968Z,56.32
2018-08-22T06:52:35.115Z,56.04
2018-08-22T06:55:04.261Z,54.58
2018-08-22T06:57:33.419Z,54.68
2018-08-22T07:00:02.571Z,53.63
2018-08-22T07:02:31.727Z,54.50
2018-08-22T07:05:00.919Z,53.75
2018-08-22T07:07:30.061Z,53.69
2018-08-22T07:09:59.190Z,53.85
2018-08-22T07:12:28.329Z,53.18
2018-08-22T07:14:57.471Z,53.72
2018-08-22T07:17:26.620Z,52.12
2018-08-22T07:19:55.763Z,51.26
2018-08-22T07:22:24.908Z,51.47
2018-08-22T07:24:54.049Z,50.80
2018-08-22T07:27:23.356Z,50.19
2018-08-22T07:29:52.532Z,49.81
2018-08-22T07:32:23.054Z,49.50
2018-08-22T07:34:52.190Z,50.00
2018-08-22T07:37:22.207Z,48.64
2018-08-22T07:39:52.302Z,48.28
2018-08-22T07:42:22.677Z,46.61
2018-08-22T07:44:52.751Z,46.02
2018-08-22T07:47:22.787Z,47.88
2018-08-22T07:49:52.788Z,47.75
2018-08-22T07:52:22.793Z,46.34
2018-08-22T07:54:52.922Z,45.76
2018-08-22T07:57:24.216Z,45.51
2018-08-22T07:59:53.830Z,45.67
2018-08-22T08:02:23.067Z,44.30
2018-08-22T08:04:53.090Z,44.99
2018-08-22T08:07:23.100Z,43.82
2018-08-22T08:09:52.233Z,43.43
2018-08-22T08:12:25.663Z,43.02
2018-08-22T08:15:00.141Z,41.93
2018-08-22T08:17:29.275Z,42.85
2018-08-22T08:19:58.411Z,41.84
2018-08-22T08:22:27.556Z,42.41
2018-08-22T08:24:56.705Z,41.92
2018-08-22T08:27:25.854Z,41.71
2018-08-22T08:29:54.999Z,42.35
2018-08-22T08:32:24.135Z,42.11
2018-08-22T08:34:53.287Z,41.54
2018-08-22T08:37:22.441Z,41.91
2018-08-22T08:39:51.559Z,40.77
2018-08-22T08:42:20.719Z,40.09
2018-08-22T08:44:50.256Z,39.88
2018-08-22T08:47:20.063Z,39.88
2018-08-22T08:49:49.198Z,38.83
2018-08-22T08:52:18.409Z,39.31
2018-08-22T08:54:47.546Z,37.67
2018-08-22T08:57:17.505Z,38.41
2018-08-22T08:59:47.355Z,39.18
2018-08-22T09:02:18.407Z,36.72
2018-08-22T09:04:47.563Z,36.93
2018-08-22T09:07:18.802Z,37.78
2018-08-22T09:09:48.062Z,38.34
2018-08-22T09:12:18.022Z,38.63
2018-08-22T09:14:47.147Z,37.95
2018-08-22T09:17:16.456Z,38.60
2018-08-22T09:19:45.574Z,37.56
2018-08-22T09:22:14.723Z,37.53
2018-08-22T09:24:43.868Z,37.71
2018-08-22T09:27:12.990Z,37.75
2018-08-22T09:29:42.155Z,37.04
2018-08-22T09:32:11.267Z,38.30
2018-08-22T09:34:40.415Z,38.19
2018-08-22T09:37:09.545Z,36.74
2018-08-22T09:39:38.697Z,35.90
2018-08-22T09:42:07.822Z,36.18
2018-08-22T09:44:36.964Z,38.19
2018-08-22T09:47:06.094Z,36.57
2018-08-22T09:49:35.244Z,36.02
2018-08-22T09:52:04.383Z,35.16
2018-08-22T09:54:44.433Z,36.64
2018-08-22T09:57:13.492Z,37.12
2018-08-22T09:59:42.632Z,36.19
2018-08-22T10:02:11.779Z,36.78
2018-08-22T10:04:40.926Z,35.83
2018-08-22T10:07:10.184Z,37.15
2018-08-22T10:09:39.301Z,36.44
2018-08-22T10:12:08.426Z,35.67
2018-08-22T10:14:37.575Z,34.00
2018-08-22T10:17:06.801Z,34.43
2018-08-22T10:19:36.028Z,36.99
2018-08-22T10:22:05.124Z,35.54
2018-08-22T10:24:35.644Z,35.84
2018-08-22T10:27:04.849Z,34.10
2018-08-22T10:29:34.516Z,34.07
2018-08-22T10:32:03.650Z,34.92
2018-08-22T10:34:34.625Z,34.16
2018-08-22T10:37:03.757Z,33.54
2018-08-22T10:44:37.853Z,33.85
2018-08-22T10:47:06.981Z,33.66
2018-08-22T10:49:36.114Z,33.53
2018-08-22T10:52:05.245Z,32.86
2018-08-22T10:54:34.384Z,34.84
2018-08-22T10:57:04.146Z,34.33
2018-08-22T10:59:34.127Z,34.24
2018-08-22T11:02:04.177Z,33.02
2018-08-22T11:04:33.269Z,32.52
2018-08-22T11:07:02.408Z,33.52
2018-08-22T11:09:31.543Z,32.75
2018-08-22T11:12:00.693Z,33.84
2018-08-22T11:14:29.939Z,34.05
2018-08-22T11:16:59.089Z,33.87
2018-08-22T11:19:28.210Z,34.87
2018-08-22T11:22:14.496Z,34.50
2018-08-22T11:25:00.776Z,34.83
2018-08-22T11:27:46.734Z,33.07
2018-08-22T11:30:33.022Z,32.74
2018-08-22T11:33:19.388Z,33.49
2018-08-22T11:35:47.063Z,32.96
2018-08-22T11:38:16.201Z,34.22
2018-08-22T11:40:45.359Z,34.78
2018-08-22T11:43:14.486Z,35.84
2018-08-22T11:45:43.615Z,34.90
2018-08-22T11:48:12.759Z,35.24
2018-08-22T11:50:41.890Z,34.56
2018-08-22T11:53:11.039Z,35.86
2018-08-22T11:55:40.179Z,35.04
2018-08-22T11:58:09.323Z,35.44
2018-08-22T12:00:38.458Z,36.19
2018-08-22T12:03:07.599Z,35.33
2018-08-22T12:05:36.730Z,35.17
2018-08-22T12:08:05.881Z,35.20
2018-08-22T12:10:35.030Z,35.46
2018-08-22T12:13:05.094Z,35.50
2018-08-22T12:15:35.207Z,35.26
2018-08-22T12:18:04.342Z,36.28
2018-08-22T12:20:33.482Z,35.97
2018-08-22T12:23:02.725Z,34.21
2018-08-22T12:25:31.860Z,36.04
2018-08-22T12:28:01.010Z,35.42
2018-08-22T12:30:30.143Z,33.21
2018-08-22T12:32:59.295Z,32.99
2018-08-22T12:35:28.443Z,34.60
2018-08-22T12:37:57.587Z,33.81
2018-08-22T12:40:26.741Z,34.13
2018-08-22T12:42:55.871Z,32.80
2018-08-22T12:45:25.047Z,33.06
2018-08-22T12:47:54.384Z,33.78
2018-08-22T12:50:23.691Z,33.85
2018-08-22T12:52:52.743Z,34.38
2018-08-22T12:55:21.882Z,33.14
2018-08-22T12:57:51.037Z,33.72
2018-08-22T13:00:20.163Z,32.98
2018-08-22T13:02:49.311Z,32.25
2018-08-22T13:05:18.526Z,31.80
2018-08-22T13:07:48.530Z,31.60
2018-08-22T13:10:18.475Z,31.31
2018-08-22T13:12:48.566Z,32.35
2018-08-22T13:15:18.583Z,33.63
2018-08-22T13:17:48.592Z,31.70
2018-08-22T13:20:18.705Z,32.58
2018-08-22T13:22:48.719Z,31.14
2018-08-22T13:25:18.868Z,33.00
2018-08-22T13:27:48.854Z,32.48
2018-08-22T13:30:18.958Z,32.18
2018-08-22T13:32:48.963Z,32.24
2018-08-22T13:35:19.967Z,32.70
2018-08-22T13:37:49.121Z,33.47
2018-08-22T13:40:19.048Z,33.21
2018-08-22T13:42:49.069Z,33.67
2018-08-22T13:45:19.079Z,34.68
2018-08-22T13:47:50.207Z,33.99
2018-08-22T13:50:19.333Z,33.59
2018-08-22T13:52:49.240Z,34.97
2018-08-22T13:55:19.346Z,34.80
2018-08-22T13:57:49.383Z,35.29
2018-08-22T14:00:19.382Z,34.63
2018-08-22T14:02:49.406Z,34.53
2018-08-22T14:05:19.455Z,34.13
2018-08-22T14:07:49.547Z,34.85
2018-08-22T14:10:19.580Z,34.84
2018-08-22T14:12:49.583Z,33.72
2018-08-22T14:15:19.633Z,33.99
2018-08-22T14:17:49.718Z,33.79
2018-08-22T14:20:18.867Z,33.86
2018-08-22T14:22:48.017Z,33.28
2018-08-22T14:25:17.138Z,32.71
2018-08-22T14:27:46.275Z,33.55
2018-08-22T14:30:15.546Z,32.93
2018-08-22T14:32:44.680Z,32.88
2018-08-22T14:35:13.823Z,33.05
2018-08-22T14:37:42.963Z,33.61
2018-08-22T14:40:12.106Z,32.96
2018-08-22T14:42:41.234Z,33.39
2018-08-22T14:45:10.458Z,32.66
2018-08-22T14:47:39.663Z,33.82
2018-08-22T14:50:08.887Z,32.42
2018-08-22T14:52:38.334Z,33.59
2018-08-22T14:55:07.577Z,33.80
2018-08-22T14:57:36.710Z,32.28
2018-08-22T15:00:06.342Z,33.00
2018-08-22T15:02:35.673Z,32.24
2018-08-22T15:05:04.781Z,32.35
2018-08-22T15:07:33.940Z,33.15
2018-08-22T15:10:03.094Z,32.38
2018-08-22T15:12:32.242Z,33.54
2018-08-22T15:15:01.374Z,33.17
2018-08-22T15:17:30.511Z,32.82
2018-08-22T15:19:59.647Z,31.98
2018-08-22T15:22:28.792Z,34.24
2018-08-22T15:24:57.918Z,35.25
2018-08-22T15:27:27.066Z,36.48
2018-08-22T15:29:56.200Z,36.92
2018-08-22T15:32:25.817Z,36.31
2018-08-22T15:34:56.139Z,36.39
2018-08-22T15:37:25.859Z,36.77
2018-08-22T15:39:54.995Z,36.64
2018-08-22T15:42:24.135Z,38.14
2018-08-22T15:44:53.275Z,38.17
2018-08-22T15:47:22.486Z,37.75
2018-08-22T15:49:51.546Z,37.96
2018-08-22T15:52:20.700Z,38.14
2018-08-22T15:55:10.899Z,38.83
2018-08-22T15:57:57.634Z,38.37
2018-08-22T16:00:44.234Z,39.13
2018-08-22T16:03:13.373Z,39.10
2018-08-22T16:05:43.445Z,38.84
2018-08-22T16:08:13.069Z,39.50
2018-08-22T16:10:42.200Z,39.43
2018-08-22T16:13:17.677Z,40.32
2018-08-22T16:15:48.643Z,40.89
2018-08-22T16:18:18.865Z,40.53
2018-08-22T16:20:56.247Z,41.43
2018-08-22T16:23:28.551Z,40.22
2018-08-22T16:25:58.944Z,40.87
2018-08-22T16:28:34.348Z,41.17
2018-08-22T16:31:03.481Z,42.49
2018-08-22T16:33:32.632Z,41.43
2018-08-22T16:36:01.754Z,43.03
2018-08-22T16:38:30.903Z,42.32
2018-08-22T16:41:00.108Z,43.53
2018-08-22T16:43:41.153Z,42.82
2018-08-22T16:46:12.342Z,42.81
2018-08-22T16:48:42.626Z,42.62
2018-08-22T16:51:11.820Z,43.58
2018-08-22T16:53:40.949Z,43.58
2018-08-22T16:56:10.088Z,43.11
2018-08-22T16:58:39.230Z,43.36
2018-08-22T17:01:08.358Z,44.22
2018-08-22T17:03:37.506Z,43.34
2018-08-22T17:06:11.922Z,43.36
2018-08-22T17:08:41.149Z,43.02
2018-08-22T17:11:11.437Z,43.15
2018-08-22T17:13:45.626Z,42.67
2018-08-22T17:16:14.858Z,43.72
2018-08-22T17:18:44.014Z,42.46
2018-08-22T17:21:13.179Z,42.07
2018-08-22T17:23:42.655Z,41.81
2018-08-22T17:26:19.376Z,41.94
2018-08-22T17:28:53.857Z,42.83
2018-08-22T17:31:24.073Z,41.61
2018-08-22T17:33:55.226Z,42.70
2018-08-22T17:36:24.523Z,42.58
2018-08-22T17:38:55.375Z,42.40
2018-08-22T17:41:26.338Z,42.52
2018-08-22T17:44:12.394Z,43.00
2018-08-22T17:46:48.651Z,43.38
2018-08-22T17:49:17.958Z,43.67
2018-08-22T17:51:58.629Z,43.62
2018-08-22T17:54:28.027Z,42.90
2018-08-22T17:57:15.453Z,43.73
2018-08-22T17:59:45.058Z,43.48
2018-08-22T18:02:15.320Z,44.37
2018-08-22T18:05:02.203Z,45.12
2018-08-22T18:07:31.397Z,44.53
2018-08-22T18:10:02.030Z,45.83
2018-08-22T18:12:31.175Z,46.19
2018-08-22T18:15:02.257Z,45.99
2018-08-22T18:17:31.478Z,45.78
2018-08-22T18:20:00.967Z,46.21
2018-08-22T18:22:33.631Z,46.27
2018-08-22T18:25:02.782Z,46.44
2018-08-22T18:27:32.020Z,47.26
2018-08-22T18:30:01.063Z,46.96
2018-08-22T18:32:30.210Z,47.13
2018-08-22T18:35:06.023Z,47.48
2018-08-22T18:37:35.119Z,46.92
2018-08-22T18:40:21.788Z,48.28
2018-08-22T18:42:54.755Z,48.37
2018-08-22T18:45:24.594Z,47.69
2018-08-22T18:47:53.768Z,47.88
2018-08-22T18:50:22.914Z,48.06
2018-08-22T18:52:55.082Z,48.15
2018-08-22T18:55:26.538Z,48.64
2018-08-22T18:57:56.435Z,48.64
2018-08-22T19:00:25.677Z,49.02
2018-08-22T19:02:58.705Z,48.26
2018-08-22T19:05:30.649Z,49.31
2018-08-22T19:08:09.901Z,48.74
2018-08-22T19:10:40.221Z,49.53
2018-08-22T19:13:14.516Z,49.29
2018-08-22T19:15:47.038Z,48.97
2018-08-22T19:18:16.223Z,49.82
2018-08-22T19:20:45.403Z,49.23
2018-08-22T19:23:14.571Z,49.35
2018-08-22T19:25:46.706Z,50.28
2018-08-22T19:28:15.873Z,50.66
2018-08-22T19:30:45.009Z,49.38
2018-08-22T19:33:15.591Z,49.28
2018-08-22T19:35:45.357Z,50.32
2018-08-22T19:38:18.550Z,49.51
2018-08-22T19:40:47.717Z,49.41
2018-08-22T19:43:16.877Z,50.00
2018-08-22T19:45:46.057Z,49.98
2018-08-22T19:48:15.240Z,49.75
2018-08-22T19:50:44.395Z,50.42
2018-08-22T19:53:14.246Z,50.69
2018-08-22T19:55:44.371Z,49.68
2018-08-22T19:58:19.978Z,50.54
2018-08-22T20:00:49.450Z,50.15
2018-08-22T20:03:22.667Z,50.24
2018-08-22T20:05:53.143Z,51.56
2018-08-22T20:08:27.645Z,50.76
2018-08-22T20:10:57.749Z,51.23
2018-08-22T20:13:41.436Z,51.91
2018-08-22T20:16:10.587Z,51.66
2018-08-22T20:18:39.719Z,52.73
2018-08-22T20:21:15.856Z,52.78
2018-08-22T20:23:45.540Z,52.82
2018-08-22T20:26:14.751Z,52.17
2018-08-22T20:28:47.971Z,53.01
2018-08-22T20:31:17.101Z,52.61
2018-08-22T20:34:06.460Z,52.69
2018-08-22T20:36:35.657Z,53.40
2018-08-22T20:39:10.027Z,54.07
2018-08-22T20:41:39.722Z,53.16
2018-08-22T20:44:18.140Z,54.14
2018-08-22T20:46:48.479Z,54.34
2018-08-22T20:49:20.055Z,54.40
2018-08-22T20:51:49.417Z,54.06
2018-08-22T20:54:23.633Z,53.69
2018-08-22T20:56:58.161Z,54.17
2018-08-22T20:59:27.359Z,54.90
2018-08-22T21:02:01.793Z,54.22
2018-08-22T21:04:30.918Z,55.52
2018-08-22T21:07:01.073Z,55.62
2018-08-22T21:09:30.210Z,55.65
2018-08-22T21:12:00.000Z,55.04
2018-08-22T21:14:30.441Z,56.20
2018-08-22T21:16:59.611Z,55.70
2018-08-22T21:19:28.759Z,56.12
2018-08-22T21:21:57.889Z,56.27
2018-08-22T21:24:27.065Z,56.51
2018-08-22T21:26:56.371Z,56.79
2018-08-22T21:29:26.481Z,56.85
2018-08-22T21:31:55.618Z,56.60
2018-08-22T21:34:24.749Z,57.22
2018-08-22T21:36:53.904Z,55.81
2018-08-22T21:39:24.450Z,55.74
2018-08-22T21:41:53.797Z,55.90
2018-08-22T21:44:23.665Z,55.54
2018-08-22T21:47:00.967Z,56.61
2018-08-22T21:49:30.389Z,57.44
2018-08-22T21:52:01.111Z,56.95
2018-08-22T21:54:30.313Z,57.91
2018-08-22T21:56:59.483Z,57.34
2018-08-22T21:59:28.635Z,57.35
2018-08-22T22:02:03.027Z,57.54
2018-08-22T22:04:34.359Z,57.88
2018-08-22T22:07:04.695Z,57.82
2018-08-22T22:09:34.394Z,57.29
2018-08-22T22:12:04.109Z,57.38
2018-08-22T22:14:34.418Z,57.60
2018-08-22T22:17:04.341Z,58.21
2018-08-22T22:19:36.413Z,59.17
2018-08-22T22:22:05.619Z,58.41
2018-08-22T22:24:43.739Z,59.03
2018-08-22T22:27:13.327Z,59.23
2018-08-22T22:29:42.460Z,57.95
2018-08-22T22:32:13.827Z,59.04
2018-08-22T22:34:42.964Z,59.07
2018-08-22T22:37:12.106Z,59.69
2018-08-22T22:39:43.942Z,59.39
2018-08-22T22:42:18.681Z,59.39
2018-08-22T22:44:49.754Z,59.35
2018-08-22T22:47:24.302Z,58.72
2018-08-22T22:49:53.454Z,59.67
2018-08-22T22:52:43.808Z,59.16
2018-08-22T22:55:13.314Z,59.22
2018-08-22T22:57:43.729Z,59.41
2018-08-22T23:00:14.275Z,59.35
2018-08-22T23:02:44.523Z,60.05
2018-08-22T23:05:13.681Z,60.38
2018-08-22T23:07:43.495Z,59.99
2018-08-22T23:10:13.628Z,59.97
2018-08-22T23:12:45.978Z,60.52
2018-08-22T23:15:18.539Z,60.52
2018-08-22T23:17:52.219Z,60.36
2018-08-22T23:20:41.999Z,59.41
2018-08-22T23:23:30.410Z,60.32
2018-08-22T23:26:13.106Z,60.52
2018-08-22T23:28:43.339Z,60.32
2018-08-22T23:33:43.779Z,60.29
2018-08-22T23:36:12.981Z,60.33
2018-08-22T23:38:42.161Z,59.91
2018-08-22T23:41:11.471Z,60.34
2018-08-22T23:43:55.927Z,59.55
2018-08-22T23:46:25.073Z,59.56
2018-08-22T23:48:57.825Z,60.51
2018-08-22T23:51:26.967Z,60.23
2018-08-22T23:53:59.276Z,59.74
2018-08-22T23:56:29.512Z,60.16
2018-08-22T23:58:59.026Z,60.84
